Time;durP1;ratioP1;P1;durP2;ratioP2;P2;SDS_P1;SDS_P2;PMS_P1;PMS_P2;Temp;Humidity;BMP_temperature;BMP_pressure;BME280_temperature;BME280_humidity;BME280_pressure;Samples;Min_cycle;Max_cycle;Signal;HPM_P1;HPM_P2
2021/08/03 00:01:41;;;;;;;4.35;3.50;;;14.90;99.90;;;;;;6184191;23;20027;-90
2021/08/03 00:04:16;;;;;;;6.13;3.75;;;14.90;99.90;;;;;;6182992;23;20437;-89
2021/08/03 00:06:47;;;;;;;4.13;3.70;;;14.90;99.90;;;;;;6184577;23;20013;-89
2021/08/03 00:09:17;;;;;;;5.35;3.50;;;14.90;99.90;;;;;;6184108;23;20025;-89
2021/08/03 00:11:52;;;;;;;4.68;3.80;;;14.90;99.90;;;;;;6172918;23;20016;-89
2021/08/03 00:14:24;;;;;;;7.55;4.18;;;14.90;99.90;;;;;;6172549;23;20481;-90
2021/08/03 00:16:53;;;;;;;4.07;3.55;;;14.90;99.90;;;;;;6185021;23;20056;-90
2021/08/03 00:19:25;;;;;;;5.90;3.70;;;14.90;99.90;;;;;;6171986;23;20028;-90
2021/08/03 00:21:53;;;;;;;6.57;3.97;;;14.90;99.90;;;;;;6184040;23;20013;-89
2021/08/03 00:24:24;;;;;;;4.57;3.80;;;14.90;99.90;;;;;;6183347;23;20336;-90
2021/08/03 00:26:51;;;;;;;5.28;3.78;;;14.90;99.90;;;;;;6184394;23;20021;-89
2021/08/03 00:29:19;;;;;;;;;;;14.90;99.90;;;;;;6185351;23;20432;-90
2021/08/03 00:31:52;;;;;;;5.93;4.00;;;14.90;99.90;;;;;;6171102;23;19991;-90
2021/08/03 00:34:20;;;;;;;5.43;3.80;;;14.90;99.90;;;;;;6182937;23;20017;-89
2021/08/03 00:36:56;;;;;;;7.45;4.20;;;14.90;99.90;;;;;;6171061;23;20024;-89
2021/08/03 00:39:27;;;;;;;9.05;4.28;;;14.90;99.90;;;;;;6197127;23;20061;-88
2021/08/03 00:42:03;;;;;;;7.20;4.18;;;14.90;99.90;;;;;;6193678;23;20028;-89
2021/08/03 00:44:58;;;;;;;7.65;4.53;;;14.90;99.90;;;;;;6182436;23;20017;-89
2021/08/03 00:47:27;;;;;;;6.32;4.22;;;14.90;99.90;;;;;;6180208;23;20019;-89
2021/08/03 00:49:58;;;;;;;7.93;4.90;;;14.90;99.90;;;;;;6160406;23;20096;-89
2021/08/03 00:52:29;;;;;;;7.22;4.78;;;14.90;99.90;;;;;;6182953;23;20041;-89
2021/08/03 00:54:56;;;;;;;8.90;4.50;;;14.90;99.90;;;;;;6183306;23;20396;-90
2021/08/03 00:57:34;;;;;;;6.93;4.15;;;14.90;99.90;;;;;;6173217;23;20325;-88
2021/08/03 01:00:05;;;;;;;8.63;4.53;;;14.90;99.90;;;;;;6183480;23;20088;-89
2021/08/03 01:02:34;;;;;;;5.00;4.30;;;14.80;99.90;;;;;;6183492;23;20028;-89
2021/08/03 01:05:03;;;;;;;4.85;4.10;;;14.80;99.90;;;;;;6185102;23;20357;-89
2021/08/03 01:07:45;;;;;;;4.97;4.05;;;14.90;99.90;;;;;;6182842;23;20013;-89
2021/08/03 01:10:35;;;;;;;7.22;4.75;;;14.90;99.90;;;;;;6146414;23;20374;-90
2021/08/03 01:13:13;;;;;;;7.20;4.65;;;14.90;99.90;;;;;;6184603;23;20093;-89
2021/08/03 01:15:53;;;;;;;6.78;4.60;;;14.80;99.90;;;;;;6170021;23;20032;-90
2021/08/03 01:18:34;;;;;;;8.65;4.45;;;14.90;99.90;;;;;;6171475;23;20032;-90
2021/08/03 01:21:23;;;;;;;8.30;4.63;;;14.90;99.90;;;;;;6183476;23;20029;-90
2021/08/03 01:23:57;;;;;;;;;;;14.90;99.90;;;;;;6175562;23;20016;-90
2021/08/03 01:26:27;;;;;;;9.43;5.00;;;14.80;99.90;;;;;;6184902;23;19924;-90
2021/08/03 01:29:01;;;;;;;5.20;4.40;;;14.80;99.90;;;;;;6180840;23;20058;-90
2021/08/03 01:31:31;;;;;;;7.85;4.95;;;14.80;99.90;;;;;;6185373;23;20021;-90
2021/08/03 01:34:08;;;;;;;6.00;4.20;;;14.80;99.90;;;;;;6185585;23;20017;-90
2021/08/03 01:36:43;;;;;;;6.28;4.10;;;14.80;99.90;;;;;;6149874;23;20021;-90
2021/08/03 01:39:17;;;;;;;8.48;4.65;;;14.80;99.90;;;;;;6172229;23;20016;-90
2021/08/03 01:41:53;;;;;;;6.10;3.88;;;14.80;99.90;;;;;;6172653;23;20021;-90
2021/08/03 01:44:22;;;;;;;5.80;4.55;;;14.90;99.90;;;;;;6184450;23;20333;-89
2021/08/03 01:46:52;;;;;;;8.75;5.10;;;14.90;99.90;;;;;;6185336;23;20307;-90
2021/08/03 01:49:24;;;;;;;5.90;4.57;;;14.90;99.90;;;;;;6184192;23;20021;-90
2021/08/03 01:51:54;;;;;;;7.63;4.18;;;14.90;99.90;;;;;;6176447;23;20083;-89
2021/08/03 01:54:24;;;;;;;7.00;4.82;;;14.90;99.90;;;;;;6160836;23;20076;-90
2021/08/03 01:56:56;;;;;;;6.35;4.40;;;14.90;99.90;;;;;;6185573;23;20071;-89
2021/08/03 01:59:24;;;;;;;6.43;4.30;;;14.80;99.90;;;;;;6195961;23;21397;-89
2021/08/03 02:02:03;;;;;;;5.78;4.55;;;14.80;99.90;;;;;;6188000;23;20025;-89
2021/08/03 02:04:33;;;;;;;7.18;4.90;;;14.80;99.90;;;;;;6172020;23;20095;-89
2021/08/03 02:07:06;;;;;;;8.60;4.85;;;14.70;99.90;;;;;;6175669;23;20017;-89
2021/08/03 02:09:35;;;;;;;7.45;4.63;;;14.70;99.90;;;;;;6184708;23;20017;-90
2021/08/03 02:12:05;;;;;;;8.35;5.07;;;14.70;99.90;;;;;;6185069;23;20020;-89
2021/08/03 02:14:32;;;;;;;7.38;4.82;;;14.70;99.90;;;;;;6159945;23;20017;-89
2021/08/03 02:17:02;;;;;;;5.15;4.20;;;14.70;99.90;;;;;;6185049;23;20067;-89
2021/08/03 02:19:30;;;;;;;7.00;4.30;;;14.70;99.90;;;;;;6175659;23;20070;-90
2021/08/03 02:22:00;;;;;;;9.82;4.45;;;14.70;99.90;;;;;;6185474;23;20017;-89
2021/08/03 02:24:27;;;;;;;7.18;4.28;;;14.70;99.90;;;;;;6174839;23;20632;-89
2021/08/03 02:26:54;;;;;;;7.15;4.80;;;14.70;99.90;;;;;;6171629;23;20023;-89
2021/08/03 02:29:23;;;;;;;7.32;4.30;;;14.70;99.90;;;;;;6184532;23;20024;-88
2021/08/03 02:32:01;;;;;;;8.10;4.70;;;14.70;99.90;;;;;;6184761;23;20092;-89
2021/08/03 02:34:42;;;;;;;7.32;4.53;;;14.70;99.90;;;;;;6183771;23;20028;-89
2021/08/03 02:37:17;;;;;;;8.50;4.78;;;14.70;99.90;;;;;;6184268;23;20502;-89
2021/08/03 02:39:50;;;;;;;8.43;4.63;;;14.70;99.90;;;;;;6185171;23;20021;-89
2021/08/03 02:42:24;;;;;;;11.00;5.40;;;14.70;99.90;;;;;;6172388;23;20017;-89
2021/08/03 02:45:01;;;;;;;8.02;4.75;;;14.70;99.90;;;;;;6184888;23;20064;-89
2021/08/03 02:47:37;;;;;;;8.07;5.32;;;14.70;99.90;;;;;;6183453;23;20025;-89
2021/08/03 02:50:08;;;;;;;9.13;5.63;;;14.70;99.90;;;;;;6183622;23;20013;-89
2021/08/03 02:52:39;;;;;;;9.02;5.90;;;14.70;99.90;;;;;;6184429;23;20013;-88
2021/08/03 02:55:36;;;;;;;9.68;5.28;;;14.70;99.90;;;;;;6183596;23;20043;-89
2021/08/03 02:58:14;;;;;;;9.13;6.05;;;14.70;99.90;;;;;;6165027;23;20040;-89
2021/08/03 03:00:42;;;;;;;8.38;6.28;;;14.70;99.90;;;;;;6175023;23;20382;-89
2021/08/03 03:03:16;;;;;;;9.15;6.30;;;14.70;99.90;;;;;;6183583;23;20021;-89
2021/08/03 03:05:49;;;;;;;9.93;6.60;;;14.70;99.90;;;;;;6184473;23;20025;-88
2021/08/03 03:08:21;;;;;;;7.40;5.88;;;14.70;99.90;;;;;;6162036;23;20021;-89
2021/08/03 03:10:56;;;;;;;11.80;6.30;;;14.70;99.90;;;;;;6184356;23;20023;-89
2021/08/03 03:13:32;;;;;;;11.00;6.57;;;14.70;99.90;;;;;;6162751;23;20081;-89
2021/08/03 03:16:10;;;;;;;7.38;5.97;;;14.80;99.90;;;;;;6161965;23;20021;-89
2021/08/03 03:18:41;;;;;;;10.55;6.47;;;14.80;99.90;;;;;;6205343;23;20057;-88
2021/08/03 03:21:09;;;;;;;8.35;6.03;;;14.80;99.90;;;;;;6175867;23;20026;-89
2021/08/03 03:23:38;;;;;;;7.72;6.28;;;14.80;99.90;;;;;;6174971;23;20027;-89
2021/08/03 03:26:15;;;;;;;9.18;5.80;;;14.80;99.90;;;;;;6176597;23;20088;-89
2021/08/03 03:28:53;;;;;;;6.82;6.07;;;14.80;99.90;;;;;;6184621;23;20093;-89
2021/08/03 03:31:25;;;;;;;10.48;6.78;;;14.80;99.90;;;;;;6175389;23;20051;-89
2021/08/03 03:33:54;;;;;;;8.35;5.80;;;14.80;99.90;;;;;;6184326;23;20119;-89
2021/08/03 03:36:29;;;;;;;6.72;6.07;;;14.80;99.90;;;;;;6172882;23;20024;-89
2021/08/03 03:39:00;;;;;;;9.40;5.53;;;14.80;99.90;;;;;;6163792;23;20024;-89
2021/08/03 03:41:33;;;;;;;7.70;6.30;;;14.80;99.90;;;;;;6183710;23;20039;-90
2021/08/03 03:44:03;;;;;;;8.80;6.07;;;14.80;99.90;;;;;;6171793;23;20032;-89
2021/08/03 03:46:40;;;;;;;10.05;6.10;;;14.80;99.90;;;;;;6182356;23;20100;-89
2021/08/03 03:49:26;;;;;;;13.38;6.38;;;14.80;99.90;;;;;;6170888;23;20020;-89
2021/08/03 03:52:04;;;;;;;11.07;6.40;;;14.80;99.90;;;;;;6171571;23;20083;-89
2021/08/03 03:54:38;;;;;;;11.68;6.57;;;14.80;99.90;;;;;;6183724;23;20021;-89
2021/08/03 03:57:13;;;;;;;8.93;6.55;;;14.80;99.90;;;;;;6165185;23;20019;-89
2021/08/03 04:00:12;;;;;;;9.60;6.47;;;14.90;99.90;;;;;;6162452;23;20021;-89
2021/08/03 04:02:42;;;;;;;10.95;6.57;;;14.90;99.90;;;;;;6183223;23;20025;-89
2021/08/03 04:05:20;;;;;;;11.68;6.63;;;14.90;99.90;;;;;;6184590;23;20048;-89
2021/08/03 04:07:53;;;;;;;10.00;6.78;;;14.90;99.90;;;;;;6171928;23;20044;-89
2021/08/03 04:10:32;;;;;;;7.32;5.80;;;14.90;99.90;;;;;;6184737;23;20437;-89
2021/08/03 04:13:00;;;;;;;7.40;6.40;;;14.90;99.90;;;;;;6183901;23;20380;-89
2021/08/03 04:15:28;;;;;;;8.88;7.10;;;14.90;99.90;;;;;;6173166;23;20091;-89
2021/08/03 04:17:58;;;;;;;9.55;6.60;;;14.90;99.90;;;;;;6184156;23;20098;-89
2021/08/03 04:20:25;;;;;;;10.32;6.78;;;14.90;99.90;;;;;;6183369;23;20027;-90
2021/08/03 04:22:52;;;;;;;9.25;6.85;;;14.90;99.90;;;;;;6175160;23;20452;-89
2021/08/03 04:25:20;;;;;;;9.68;6.75;;;14.90;99.90;;;;;;6170287;23;20045;-90
2021/08/03 04:27:47;;;;;;;9.82;6.75;;;14.80;99.90;;;;;;6171440;23;20071;-89
2021/08/03 04:30:18;;;;;;;8.30;6.45;;;14.90;99.90;;;;;;6182698;23;20017;-91
2021/08/03 04:32:50;;;;;;;9.07;6.93;;;14.90;99.90;;;;;;6182826;23;20452;-90
2021/08/03 04:35:40;;;;;;;9.23;7.07;;;14.80;99.90;;;;;;6120480;23;20024;-90
2021/08/03 04:38:10;;;;;;;8.68;7.15;;;14.80;99.90;;;;;;6214339;23;20036;-90
2021/08/03 04:40:40;;;;;;;12.40;6.55;;;14.80;99.90;;;;;;6188338;23;20109;-91
2021/08/03 04:43:07;;;;;;;12.65;6.80;;;14.80;99.90;;;;;;6184911;23;20364;-90
2021/08/03 04:45:34;;;;;;;9.02;6.90;;;14.90;99.90;;;;;;6170953;23;20024;-89
2021/08/03 04:48:02;;;;;;;10.00;7.05;;;14.80;99.90;;;;;;6183782;23;20096;-90
2021/08/03 04:50:31;;;;;;;10.00;7.70;;;14.80;99.90;;;;;;6183214;23;20451;-90
2021/08/03 04:53:00;;;;;;;11.27;7.22;;;14.80;99.90;;;;;;6184148;23;20474;-91
2021/08/03 04:55:30;;;;;;;9.75;7.15;;;14.80;99.90;;;;;;6182741;23;20017;-90
2021/08/03 04:57:57;;;;;;;11.75;7.72;;;14.80;99.90;;;;;;6184180;23;20025;-91
2021/08/03 05:00:34;;;;;;;8.55;6.65;;;14.80;99.90;;;;;;6175456;23;20384;-91
2021/08/03 05:03:03;;;;;;;9.23;7.18;;;14.80;99.90;;;;;;6163199;23;20048;-90
2021/08/03 05:05:32;;;;;;;9.52;7.07;;;14.80;99.90;;;;;;6115044;23;20017;-90
2021/08/03 05:08:05;;;;;;;16.63;7.90;;;14.80;99.90;;;;;;6179126;23;20025;-90
2021/08/03 05:10:36;;;;;;;9.35;7.18;;;14.80;99.90;;;;;;6185097;23;20051;-90
2021/08/03 05:13:03;;;;;;;;;;;14.80;99.90;;;;;;6186756;23;20029;-90
2021/08/03 05:15:30;;;;;;;10.70;7.63;;;14.80;99.90;;;;;;6184900;23;19944;-90
2021/08/03 05:17:59;;;;;;;9.32;7.55;;;14.80;99.90;;;;;;6185851;23;20087;-90
2021/08/03 05:20:27;;;;;;;12.95;7.70;;;14.80;99.90;;;;;;6190223;23;20020;-90
2021/08/03 05:23:08;;;;;;;12.20;7.80;;;14.80;99.90;;;;;;6187842;23;20524;-90
2021/08/03 05:25:35;;;;;;;12.90;8.07;;;14.80;99.90;;;;;;6185555;23;20095;-90
2021/08/03 05:28:03;;;;;;;11.80;7.93;;;14.80;99.90;;;;;;6185375;23;20032;-88
2021/08/03 05:30:30;;;;;;;13.18;7.22;;;14.80;99.90;;;;;;6183714;23;20088;-89
2021/08/03 05:32:57;;;;;;;11.63;7.90;;;14.90;99.90;;;;;;6171901;23;20021;-88
2021/08/03 05:35:26;;;;;;;11.88;8.20;;;14.90;99.90;;;;;;6162220;23;20021;-90
2021/08/03 05:38:05;;;;;;;;;;;;;;;;;;;;;
2021/08/03 05:40:35;;;;;;;13.25;8.77;;;14.80;99.90;;;;;;6164549;23;20040;-91
2021/08/03 05:43:02;;;;;;;13.10;8.15;;;14.90;99.90;;;;;;6173290;23;20017;-90
2021/08/03 05:45:32;;;;;;;12.27;7.43;;;14.90;99.90;;;;;;6184211;23;20055;-90
2021/08/03 05:47:59;;;;;;;11.82;7.80;;;14.90;99.90;;;;;;6184849;23;20025;-90
2021/08/03 05:50:29;;;;;;;13.85;8.68;;;14.90;99.90;;;;;;6170353;23;20041;-90
2021/08/03 05:53:25;;;;;;;14.82;8.43;;;14.90;99.90;;;;;;6185660;23;20197;-95
2021/08/03 05:59:00;;;;;;;13.75;7.75;;;14.90;99.90;;;;;;6212445;22;19922;-90
2021/08/03 06:01:28;;;;;;;10.77;7.75;;;15.00;99.90;;;;;;6204326;23;20023;-88
2021/08/03 06:03:55;;;;;;;13.18;8.10;;;15.00;99.90;;;;;;6244976;23;20020;-88
2021/08/03 06:06:25;;;;;;;13.05;7.25;;;15.00;99.90;;;;;;6245446;22;20447;-88
2021/08/03 06:08:56;;;;;;;10.98;7.38;;;15.00;99.90;;;;;;6246248;22;20070;-89
2021/08/03 06:11:27;;;;;;;13.38;7.72;;;15.00;99.90;;;;;;6244494;22;20016;-90
2021/08/03 06:13:57;;;;;;;12.88;7.63;;;15.10;99.90;;;;;;6232656;23;20493;-89
2021/08/03 06:16:27;;;;;;;10.10;7.50;;;15.10;99.90;;;;;;6244774;22;20427;-90
2021/08/03 06:19:01;;;;;;;13.18;7.85;;;15.10;99.90;;;;;;6245494;23;20016;-89
2021/08/03 06:21:29;;;;;;;12.95;7.82;;;15.10;99.90;;;;;;6244743;22;20451;-89
2021/08/03 06:23:57;;;;;;;12.32;8.27;;;15.20;99.90;;;;;;6246432;22;20017;-90
2021/08/03 06:26:24;;;;;;;12.13;8.30;;;15.20;99.90;;;;;;6232307;22;20030;-89
2021/08/03 06:28:54;;;;;;;13.00;8.02;;;15.20;99.90;;;;;;6245661;23;20020;-89
2021/08/03 06:31:27;;;;;;;16.10;8.32;;;15.20;99.90;;;;;;6233518;22;20068;-89
2021/08/03 06:33:54;;;;;;;13.70;8.52;;;15.20;99.90;;;;;;6244905;23;20526;-89
2021/08/03 06:36:22;;;;;;;13.38;8.35;;;15.20;99.90;;;;;;6229957;23;20020;-90
2021/08/03 06:39:12;;;;;;;13.70;8.77;;;15.20;99.90;;;;;;6162034;23;20021;-89
2021/08/03 06:41:41;;;;;;;12.98;8.88;;;15.20;99.90;;;;;;6169511;23;20417;-90
2021/08/03 06:44:21;;;;;;;13.38;8.57;;;15.20;99.90;;;;;;6195258;23;20070;-90
2021/08/03 06:46:56;;;;;;;12.05;8.30;;;15.20;99.90;;;;;;6188698;23;20017;-90
2021/08/03 06:49:25;;;;;;;12.60;8.63;;;15.20;99.90;;;;;;6187536;23;20027;-90
2021/08/03 06:51:59;;;;;;;13.13;8.70;;;15.30;99.90;;;;;;6163547;23;20095;-90
2021/08/03 06:54:29;;;;;;;11.38;8.68;;;15.30;99.90;;;;;;6212449;23;20039;-89
2021/08/03 06:57:08;;;;;;;11.38;8.63;;;15.30;99.90;;;;;;6213101;23;20020;-88
2021/08/03 06:59:50;;;;;;;14.95;8.73;;;15.30;99.90;;;;;;6243472;23;20038;-89
2021/08/03 07:02:33;;;;;;;13.32;8.40;;;15.30;99.90;;;;;;6244158;22;20050;-89
2021/08/03 07:05:13;;;;;;;14.35;9.02;;;15.30;99.90;;;;;;6246015;22;20020;-89
2021/08/03 07:07:42;;;;;;;13.90;8.38;;;15.30;99.90;;;;;;6243422;23;20024;-89
2021/08/03 07:10:09;;;;;;;13.20;8.60;;;15.40;99.90;;;;;;6230771;22;20039;-90
2021/08/03 07:12:40;;;;;;;12.00;8.95;;;15.40;99.90;;;;;;6244356;23;20016;-90
2021/08/03 07:15:09;;;;;;;12.68;9.15;;;15.40;99.90;;;;;;6250833;22;20046;-89
2021/08/03 07:17:37;;;;;;;14.60;9.23;;;15.40;99.90;;;;;;6264573;22;20119;-90
2021/08/03 07:20:05;;;;;;;12.88;8.50;;;15.40;99.90;;;;;;6232415;23;20074;-90
2021/08/03 07:22:35;;;;;;;13.88;9.85;;;15.40;99.90;;;;;;6244859;23;20020;-90
2021/08/03 07:25:05;;;;;;;14.32;9.07;;;15.40;99.90;;;;;;6245119;23;20066;-90
2021/08/03 07:27:32;;;;;;;14.68;9.20;;;15.40;99.90;;;;;;6244251;23;20095;-90
2021/08/03 07:30:00;;;;;;;12.02;9.27;;;15.40;99.90;;;;;;6245302;23;20028;-90
2021/08/03 07:32:29;;;;;;;14.57;9.93;;;15.40;99.90;;;;;;6243318;22;20019;-90
2021/08/03 07:34:56;;;;;;;14.90;9.55;;;15.40;99.90;;;;;;6235970;23;20075;-89
2021/08/03 07:37:23;;;;;;;15.30;10.25;;;15.40;99.90;;;;;;6247841;22;20027;-90
2021/08/03 07:39:52;;;;;;;16.42;10.57;;;15.40;99.90;;;;;;6244569;23;20027;-91
2021/08/03 07:42:19;;;;;;;12.43;8.98;;;15.40;99.90;;;;;;6243204;22;20462;-90
2021/08/03 07:44:46;;;;;;;14.05;9.65;;;15.40;99.90;;;;;;6244670;23;20016;-89
2021/08/03 07:47:16;;;;;;;16.85;9.57;;;15.50;99.90;;;;;;6231132;22;20030;-90
2021/08/03 07:49:45;;;;;;;14.00;9.48;;;15.50;99.90;;;;;;6244767;23;20052;-90
2021/08/03 07:52:13;;;;;;;16.48;9.23;;;15.50;99.90;;;;;;6243623;22;20047;-90
2021/08/03 07:54:40;;;;;;;17.20;9.65;;;15.50;99.90;;;;;;6244001;23;20024;-90
2021/08/03 07:57:07;;;;;;;11.88;9.50;;;15.60;99.90;;;;;;6243601;22;20031;-90
2021/08/03 07:59:34;;;;;;;15.73;9.52;;;15.60;99.90;;;;;;6244098;23;20423;-89
2021/08/03 08:02:01;;;;;;;17.17;10.48;;;15.60;99.90;;;;;;6243935;23;20080;-88
2021/08/03 08:04:29;;;;;;;14.23;10.65;;;15.60;99.90;;;;;;6231027;22;20030;-89
2021/08/03 08:06:57;;;;;;;13.07;9.13;;;15.70;99.90;;;;;;6242571;23;20458;-89
2021/08/03 08:09:24;;;;;;;13.85;9.45;;;15.80;99.90;;;;;;6241856;22;20071;-89
2021/08/03 08:11:51;;;;;;;13.77;9.55;;;15.80;99.90;;;;;;6243301;22;20327;-89
2021/08/03 08:14:19;;;;;;;14.10;9.55;;;15.80;99.90;;;;;;6241159;22;20024;-90
2021/08/03 08:16:49;;;;;;;15.20;9.82;;;15.80;99.90;;;;;;6228319;23;20020;-90
2021/08/03 08:19:16;;;;;;;13.57;10.18;;;15.80;99.90;;;;;;6241301;22;20336;-89
2021/08/03 08:21:43;;;;;;;15.80;9.27;;;15.90;99.90;;;;;;6243256;22;20095;-90
2021/08/03 08:24:10;;;;;;;13.25;10.05;;;15.90;99.90;;;;;;6245628;22;20020;-89
2021/08/03 08:26:37;;;;;;;13.98;9.73;;;15.90;99.90;;;;;;6241351;23;20016;-89
2021/08/03 08:29:04;;;;;;;14.35;10.38;;;16.00;99.90;;;;;;6229379;22;20023;-88
2021/08/03 08:31:31;;;;;;;14.38;9.95;;;16.00;99.90;;;;;;6242772;22;20012;-89
2021/08/03 08:34:01;;;;;;;13.60;10.00;;;16.00;99.90;;;;;;6244511;23;20016;-90
2021/08/03 08:36:30;;;;;;;12.70;10.20;;;16.10;99.90;;;;;;6262929;22;20016;-90
2021/08/03 08:38:57;;;;;;;13.40;9.48;;;16.10;99.90;;;;;;6231369;23;20023;-90
2021/08/03 08:41:49;;;;;;;12.65;9.00;;;16.10;99.90;;;;;;6240850;22;20039;-96
2021/08/03 08:44:24;;;;;;;11.07;8.82;;;16.10;99.90;;;;;;6233649;22;20053;-89
2021/08/03 08:46:52;;;;;;;12.60;8.70;;;16.10;99.90;;;;;;6242636;22;20513;-89
2021/08/03 08:49:21;;;;;;;11.25;8.48;;;16.10;99.90;;;;;;6241768;22;20028;-89
2021/08/03 08:51:51;;;;;;;11.63;8.98;;;16.20;99.90;;;;;;6241460;23;20087;-89
2021/08/03 08:54:18;;;;;;;11.60;8.98;;;16.20;99.90;;;;;;6240344;22;20455;-89
2021/08/03 08:56:46;;;;;;;12.40;9.35;;;16.20;99.90;;;;;;6242763;22;20441;-89
2021/08/03 08:59:13;;;;;;;13.77;9.90;;;16.20;99.90;;;;;;6240717;22;20032;-89
2021/08/03 09:01:40;;;;;;;11.48;8.30;;;16.30;99.90;;;;;;6228208;23;20050;-89
2021/08/03 09:04:08;;;;;;;11.32;8.52;;;16.30;99.90;;;;;;6240356;22;20016;-89
2021/08/03 09:06:36;;;;;;;11.70;9.30;;;16.30;99.90;;;;;;6244206;23;20091;-89
2021/08/03 09:09:17;;;;;;;12.25;8.57;;;16.40;99.90;;;;;;6243781;22;20020;-88
2021/08/03 09:11:47;;;;;;;13.05;8.82;;;16.50;99.90;;;;;;6241377;23;20087;-89
2021/08/03 09:14:33;;;;;;;11.88;8.50;;;16.60;99.90;;;;;;6240947;22;20362;-89
2021/08/03 09:17:03;;;;;;;9.73;8.32;;;16.70;99.90;;;;;;6243243;22;20443;-89
2021/08/03 09:19:37;;;;;;;11.65;7.80;;;16.80;99.90;;;;;;6225669;23;20024;-89
2021/08/03 09:22:10;;;;;;;10.07;8.15;;;17.00;99.90;;;;;;6240070;22;20086;-89
2021/08/03 09:24:37;;;;;;;10.60;8.63;;;17.20;99.90;;;;;;6242249;22;20020;-89
2021/08/03 09:27:08;;;;;;;10.80;8.55;;;17.30;99.90;;;;;;6240029;22;20087;-88
2021/08/03 09:29:45;;;;;;;10.32;8.23;;;17.40;99.90;;;;;;6240864;23;20016;-89
2021/08/03 09:32:14;;;;;;;10.80;8.73;;;17.50;99.90;;;;;;6240532;22;20043;-89
2021/08/03 09:34:43;;;;;;;11.52;8.13;;;17.60;99.90;;;;;;6240126;23;20375;-89
2021/08/03 09:37:11;;;;;;;10.27;8.13;;;17.70;99.90;;;;;;6227218;22;20016;-89
2021/08/03 09:39:38;;;;;;;11.02;8.23;;;17.70;99.90;;;;;;6240510;23;20099;-89
2021/08/03 09:42:11;;;;;;;10.68;7.80;;;17.80;99.90;;;;;;6239673;22;20053;-89
2021/08/03 09:44:52;;;;;;;10.40;8.27;;;17.90;99.90;;;;;;6241537;23;20040;-88
2021/08/03 09:47:27;;;;;;;9.55;7.82;;;18.00;99.90;;;;;;6242269;22;20099;-89
2021/08/03 09:49:56;;;;;;;11.35;8.18;;;18.00;99.90;;;;;;6250640;23;20043;-89
2021/08/03 09:52:26;;;;;;;9.25;7.57;;;18.00;99.90;;;;;;6245333;22;20451;-89
2021/08/03 09:55:07;;;;;;;8.82;7.32;;;18.00;99.90;;;;;;6263578;22;20020;-89
2021/08/03 09:57:34;;;;;;;9.70;7.13;;;18.10;99.90;;;;;;6233227;23;20012;-90
2021/08/03 10:00:20;;;;;;;9.70;7.15;;;18.00;99.90;;;;;;6242526;23;20471;-90
2021/08/03 10:02:53;;;;;;;10.68;7.43;;;18.00;99.90;;;;;;6242078;23;20313;-89
2021/08/03 10:05:21;;;;;;;10.55;8.32;;;17.90;99.90;;;;;;6240961;22;20024;-90
2021/08/03 10:07:48;;;;;;;9.43;8.05;;;17.90;99.90;;;;;;6240829;23;20051;-90
2021/08/03 10:10:16;;;;;;;11.38;8.25;;;17.80;99.90;;;;;;6240519;22;20020;-91
2021/08/03 10:12:43;;;;;;;11.77;8.60;;;17.70;99.90;;;;;;6241870;22;20044;-89
2021/08/03 10:15:12;;;;;;;12.60;8.68;;;17.70;99.90;;;;;;6240117;22;20035;-89
2021/08/03 10:17:39;;;;;;;10.80;8.05;;;17.70;99.90;;;;;;6242003;23;20352;-89
2021/08/03 10:20:12;;;;;;;12.82;8.38;;;17.70;99.90;;;;;;6243464;22;20024;-90
2021/08/03 10:22:45;;;;;;;9.50;6.93;;;17.70;99.90;;;;;;6230354;23;20051;-89
2021/08/03 10:25:16;;;;;;;9.45;7.63;;;17.80;99.90;;;;;;6240546;22;20499;-89
2021/08/03 10:27:56;;;;;;;8.95;6.57;;;18.00;99.90;;;;;;6244392;22;20020;-89
2021/08/03 10:30:37;;;;;;;8.50;7.05;;;18.20;99.90;;;;;;6216125;22;20073;-90
2021/08/03 10:33:40;;;;;;;9.43;7.70;;;18.30;99.90;;;;;;6144836;23;20040;-91
2021/08/03 10:36:36;;;;;;;8.50;7.18;;;18.60;99.90;;;;;;6212314;23;20031;-91
2021/08/03 10:39:12;;;;;;;9.38;6.55;;;18.80;99.90;;;;;;6241640;23;20317;-89
2021/08/03 10:42:08;;;;;;;10.93;7.10;;;19.00;99.90;;;;;;6230563;23;20028;-91
2021/08/03 10:45:10;;;;;;;;;;;;;;;;;;;;;
2021/08/03 10:47:41;;;;;;;9.43;7.22;;;19.10;99.90;;;;;;6228874;22;20057;-88
2021/08/03 10:54:18;;;;;;;8.68;6.82;;;19.30;99.90;;;;;;5908421;23;20028;-87
2021/08/03 10:56:58;;;;;;;9.57;6.80;;;19.30;99.90;;;;;;5944562;24;20525;-89
2021/08/03 10:59:44;;;;;;;;;;;;;;;;;;;;;
2021/08/03 11:02:32;;;;;;;8.77;7.45;;;19.30;99.90;;;;;;6017004;23;20066;-89
2021/08/03 11:05:05;;;;;;;9.95;6.82;;;19.20;99.90;;;;;;6020473;23;20034;-87
2021/08/03 11:07:36;;;;;;;10.27;9.07;;;19.20;99.90;;;;;;6028502;23;20018;-88
2021/08/03 11:10:04;;;;;;;7.97;6.45;;;19.20;99.90;;;;;;6062461;23;20027;-89
2021/08/03 11:12:48;;;;;;;8.45;6.20;;;19.00;99.90;;;;;;6060931;23;20013;-89
2021/08/03 11:15:25;;;;;;;8.18;6.82;;;18.90;99.90;;;;;;6053258;23;20482;-89
2021/08/03 11:17:59;;;;;;;9.15;6.97;;;18.80;99.90;;;;;;6072468;23;20018;-89
2021/08/03 11:20:37;;;;;;;8.82;6.50;;;18.70;99.90;;;;;;6061937;23;20558;-89
2021/08/03 11:23:17;;;;;;;8.40;6.90;;;18.60;99.90;;;;;;6062988;23;20059;-89
2021/08/03 11:25:48;;;;;;;7.60;6.00;;;18.60;99.90;;;;;;6040687;23;20047;-89
2021/08/03 11:28:20;;;;;;;7.15;6.15;;;18.50;99.90;;;;;;6086240;23;20112;-89
2021/08/03 11:30:50;;;;;;;7.43;6.50;;;18.40;99.90;;;;;;6165783;23;20044;-89
2021/08/03 11:33:24;;;;;;;9.55;6.55;;;18.40;99.90;;;;;;6242820;22;20119;-88
2021/08/03 11:35:51;;;;;;;7.22;6.38;;;18.30;99.90;;;;;;6241941;23;20423;-89
2021/08/03 11:38:24;;;;;;;7.03;6.15;;;18.20;99.90;;;;;;6240525;22;20383;-89
2021/08/03 11:40:57;;;;;;;8.18;6.53;;;18.30;99.90;;;;;;6241993;23;20331;-89
2021/08/03 11:43:27;;;;;;;8.38;6.05;;;18.30;99.90;;;;;;6240620;22;20024;-89
2021/08/03 11:45:54;;;;;;;8.55;6.82;;;18.30;99.90;;;;;;6242803;22;20035;-89
2021/08/03 11:48:24;;;;;;;7.25;6.40;;;18.40;99.90;;;;;;6230261;22;20095;-89
2021/08/03 11:50:51;;;;;;;7.65;5.68;;;18.40;99.90;;;;;;6229636;23;20044;-89
2021/08/03 11:53:20;;;;;;;9.40;6.40;;;18.30;99.90;;;;;;6241975;22;20020;-89
2021/08/03 11:55:51;;;;;;;8.95;6.90;;;18.30;99.90;;;;;;6243307;22;20024;-90
2021/08/03 11:58:22;;;;;;;8.63;6.38;;;18.30;99.90;;;;;;6241293;22;20016;-90
2021/08/03 12:00:54;;;;;;;8.75;5.25;;;18.30;99.90;;;;;;6241035;23;20020;-90
2021/08/03 12:03:30;;;;;;;7.20;5.97;;;18.30;99.90;;;;;;6226728;23;21458;-90
2021/08/03 12:06:02;;;;;;;7.28;6.40;;;18.40;99.90;;;;;;6222274;23;20016;-90
2021/08/03 12:08:37;;;;;;;7.00;6.07;;;18.50;99.90;;;;;;6243440;23;20016;-90
2021/08/03 12:11:24;;;;;;;6.47;5.88;;;18.60;99.90;;;;;;6233949;23;20016;-90
2021/08/03 12:13:52;;;;;;;8.40;5.90;;;18.80;99.90;;;;;;6209297;23;20031;-90
2021/08/03 12:16:31;;;;;;;6.85;6.15;;;19.00;99.90;;;;;;6240383;22;20338;-90
2021/08/03 12:19:00;;;;;;;7.40;6.13;;;19.10;99.90;;;;;;6229022;23;20023;-90
2021/08/03 12:21:38;;;;;;;8.10;5.70;;;19.20;99.90;;;;;;6239719;22;20396;-90
2021/08/03 12:24:09;;;;;;;7.40;5.85;;;19.30;99.90;;;;;;6240760;22;20317;-90
2021/08/03 12:26:36;;;;;;;6.57;5.15;;;19.40;99.90;;;;;;6241536;23;20074;-90
2021/08/03 12:29:03;;;;;;;8.48;5.00;;;19.40;99.90;;;;;;6241631;23;20016;-91
2021/08/03 12:31:41;;;;;;;5.32;4.82;;;19.40;99.90;;;;;;6247577;22;20024;-89
2021/08/03 12:38:16;;;;;;;8.38;5.25;;;19.40;99.90;;;;;;6145994;23;20028;-88
2021/08/03 12:40:44;;;;;;;7.43;5.47;;;19.30;99.90;;;;;;6149655;23;20126;-88
2021/08/03 12:43:11;;;;;;;11.05;5.85;;;19.20;99.90;;;;;;6158162;23;20026;-88
2021/08/03 12:45:42;;;;;;;9.15;5.97;;;19.10;99.90;;;;;;6124704;23;20021;-88
2021/08/03 12:48:10;;;;;;;8.35;5.35;;;19.00;99.90;;;;;;6149376;23;20061;-88
2021/08/03 12:50:50;;;;;;;7.32;5.18;;;19.00;99.90;;;;;;6126400;23;20040;-88
2021/08/03 12:53:28;;;;;;;8.15;5.13;;;18.90;99.90;;;;;;6125500;23;20025;-88
2021/08/03 12:56:15;;;;;;;5.50;5.00;;;18.90;99.90;;;;;;6125811;23;20056;-88
2021/08/03 12:58:47;;;;;;;8.77;5.05;;;18.90;99.90;;;;;;6124760;23;20448;-88
2021/08/03 13:01:22;;;;;;;8.15;5.43;;;19.00;99.90;;;;;;6109466;23;20032;-88
2021/08/03 13:04:00;;;;;;;6.07;5.20;;;18.90;99.90;;;;;;6124993;23;20469;-88
2021/08/03 13:06:29;;;;;;;7.15;5.90;;;18.90;99.90;;;;;;6148552;23;20073;-88
2021/08/03 13:09:03;;;;;;;7.15;5.20;;;18.90;99.90;;;;;;6126209;23;20061;-89
2021/08/03 13:11:30;;;;;;;7.50;5.47;;;18.90;99.90;;;;;;6178935;23;20111;-88
2021/08/03 13:13:57;;;;;;;6.95;5.95;;;18.80;99.90;;;;;;6240957;23;20099;-88
2021/08/03 13:16:24;;;;;;;7.75;5.88;;;18.80;99.90;;;;;;6239829;22;20031;-88
2021/08/03 13:18:51;;;;;;;6.47;5.40;;;18.80;99.90;;;;;;6241670;23;20031;-88
2021/08/03 13:21:20;;;;;;;8.65;5.55;;;18.80;99.90;;;;;;6241853;22;20470;-89
2021/08/03 13:23:48;;;;;;;7.88;5.85;;;18.90;99.90;;;;;;6243909;22;20107;-89